sensor_id;sensor_type;location;lat;lon;timestamp;P1;durP1;ratioP1;P2;durP2;ratioP2
67191;SDS011;54120;53.504;49.426;2023-03-12T00:00:05;2.55;;;2.35;;
67191;SDS011;54120;53.504;49.426;2023-03-12T00:02:36;2.47;;;2.28;;
67191;SDS011;54120;53.504;49.426;2023-03-12T00:05:02;3.05;;;2.80;;
67191;SDS011;54120;53.504;49.426;2023-03-12T00:07:29;3.55;;;2.97;;
67191;SDS011;54120;53.504;49.426;2023-03-12T00:09:55;4.85;;;2.83;;
67191;SDS011;54120;53.504;49.426;2023-03-12T00:12:22;3.05;;;2.78;;
67191;SDS011;54120;53.504;49.426;2023-03-12T00:14:48;3.20;;;2.78;;
67191;SDS011;54120;53.504;49.426;2023-03-12T00:17:14;3.20;;;2.45;;
67191;SDS011;54120;53.504;49.426;2023-03-12T00:19:40;2.78;;;2.58;;
67191;SDS011;54120;53.504;49.426;2023-03-12T00:22:07;2.80;;;2.60;;
67191;SDS011;54120;53.504;49.426;2023-03-12T00:24:33;2.72;;;2.50;;
67191;SDS011;54120;53.504;49.426;2023-03-12T00:26:59;2.92;;;2.63;;
67191;SDS011;54120;53.504;49.426;2023-03-12T00:29:25;3.20;;;2.30;;
67191;SDS011;54120;53.504;49.426;2023-03-12T00:31:52;2.53;;;2.30;;
67191;SDS011;54120;53.504;49.426;2023-03-12T00:34:18;2.70;;;2.50;;
67191;SDS011;54120;53.504;49.426;2023-03-12T00:36:45;2.75;;;2.50;;
67191;SDS011;54120;53.504;49.426;2023-03-12T00:39:11;3.35;;;2.50;;
67191;SDS011;54120;53.504;49.426;2023-03-12T00:41:37;2.10;;;1.90;;
67191;SDS011;54120;53.504;49.426;2023-03-12T00:44:03;2.55;;;2.35;;
67191;SDS011;54120;53.504;49.426;2023-03-12T00:46:31;2.58;;;2.38;;
67191;SDS011;54120;53.504;49.426;2023-03-12T00:48:57;2.60;;;2.40;;
67191;SDS011;54120;53.504;49.426;2023-03-12T00:51:23;2.58;;;2.38;;
67191;SDS011;54120;53.504;49.426;2023-03-12T00:53:49;2.30;;;2.20;;
67191;SDS011;54120;53.504;49.426;2023-03-12T00:56:15;2.40;;;2.20;;
67191;SDS011;54120;53.504;49.426;2023-03-12T00:58:41;4.78;;;2.40;;
67191;SDS011;54120;53.504;49.426;2023-03-12T01:01:07;2.40;;;2.20;;
67191;SDS011;54120;53.504;49.426;2023-03-12T01:03:33;2.50;;;2.30;;
67191;SDS011;54120;53.504;49.426;2023-03-12T01:06:00;2.70;;;2.50;;
67191;SDS011;54120;53.504;49.426;2023-03-12T01:08:26;2.50;;;2.30;;
67191;SDS011;54120;53.504;49.426;2023-03-12T01:10:52;3.67;;;2.72;;
67191;SDS011;54120;53.504;49.426;2023-03-12T01:13:18;3.90;;;2.60;;
67191;SDS011;54120;53.504;49.426;2023-03-12T01:15:44;3.15;;;2.65;;
67191;SDS011;54120;53.504;49.426;2023-03-12T01:18:10;2.75;;;2.55;;
67191;SDS011;54120;53.504;49.426;2023-03-12T01:20:36;3.63;;;2.80;;
67191;SDS011;54120;53.504;49.426;2023-03-12T01:23:02;2.50;;;2.30;;
67191;SDS011;54120;53.504;49.426;2023-03-12T01:25:28;2.80;;;2.55;;
67191;SDS011;54120;53.504;49.426;2023-03-12T01:27:54;2.60;;;2.40;;
67191;SDS011;54120;53.504;49.426;2023-03-12T01:30:20;2.80;;;2.60;;
67191;SDS011;54120;53.504;49.426;2023-03-12T01:32:48;3.13;;;2.83;;
67191;SDS011;54120;53.504;49.426;2023-03-12T01:35:13;3.70;;;2.85;;
67191;SDS011;54120;53.504;49.426;2023-03-12T01:37:39;3.25;;;2.70;;
67191;SDS011;54120;53.504;49.426;2023-03-12T01:40:05;2.38;;;2.22;;
67191;SDS011;54120;53.504;49.426;2023-03-12T01:42:32;2.45;;;2.25;;
67191;SDS011;54120;53.504;49.426;2023-03-12T01:44:59;2.38;;;2.28;;
67191;SDS011;54120;53.504;49.426;2023-03-12T01:47:27;2.60;;;2.40;;
67191;SDS011;54120;53.504;49.426;2023-03-12T01:49:57;2.70;;;2.50;;
67191;SDS011;54120;53.504;49.426;2023-03-12T01:52:28;2.72;;;2.53;;
67191;SDS011;54120;53.504;49.426;2023-03-12T01:55:02;2.92;;;2.60;;
67191;SDS011;54120;53.504;49.426;2023-03-12T01:57:44;3.30;;;2.70;;
67191;SDS011;54120;53.504;49.426;2023-03-12T02:00:16;2.80;;;2.60;;
67191;SDS011;54120;53.504;49.426;2023-03-12T02:02:44;3.25;;;2.75;;
67191;SDS011;54120;53.504;49.426;2023-03-12T02:05:18;3.15;;;2.95;;
67191;SDS011;54120;53.504;49.426;2023-03-12T02:07:54;3.00;;;2.80;;
67191;SDS011;54120;53.504;49.426;2023-03-12T02:10:21;3.35;;;3.05;;
67191;SDS011;54120;53.504;49.426;2023-03-12T02:12:48;3.30;;;2.97;;
67191;SDS011;54120;53.504;49.426;2023-03-12T02:15:14;3.30;;;3.00;;
67191;SDS011;54120;53.504;49.426;2023-03-12T02:17:40;4.43;;;3.10;;
67191;SDS011;54120;53.504;49.426;2023-03-12T02:20:40;3.25;;;2.95;;
67191;SDS011;54120;53.504;49.426;2023-03-12T02:23:08;3.40;;;3.00;;
67191;SDS011;54120;53.504;49.426;2023-03-12T02:25:38;2.00;;;1.88;;
67191;SDS011;54120;53.504;49.426;2023-03-12T02:28:08;3.67;;;3.13;;
67191;SDS011;54120;53.504;49.426;2023-03-12T02:30:37;3.17;;;2.88;;
67191;SDS011;54120;53.504;49.426;2023-03-12T02:33:07;3.13;;;2.83;;
67191;SDS011;54120;53.504;49.426;2023-03-12T02:35:33;3.42;;;3.10;;
67191;SDS011;54120;53.504;49.426;2023-03-12T02:38:00;3.42;;;3.13;;
67191;SDS011;54120;53.504;49.426;2023-03-12T02:42:55;3.40;;;3.15;;
67191;SDS011;54120;53.504;49.426;2023-03-12T02:45:22;3.70;;;3.40;;
67191;SDS011;54120;53.504;49.426;2023-03-12T02:47:51;3.95;;;3.65;;
67191;SDS011;54120;53.504;49.426;2023-03-12T02:50:18;3.95;;;3.47;;
67191;SDS011;54120;53.504;49.426;2023-03-12T02:52:44;4.55;;;3.60;;
67191;SDS011;54120;53.504;49.426;2023-03-12T02:55:10;4.47;;;3.83;;
67191;SDS011;54120;53.504;49.426;2023-03-12T02:57:37;4.35;;;3.95;;
67191;SDS011;54120;53.504;49.426;2023-03-12T03:00:04;4.45;;;3.90;;
67191;SDS011;54120;53.504;49.426;2023-03-12T03:02:38;3.85;;;3.45;;
67191;SDS011;54120;53.504;49.426;2023-03-12T03:05:04;4.00;;;3.60;;
67191;SDS011;54120;53.504;49.426;2023-03-12T03:07:31;4.00;;;3.70;;
67191;SDS011;54120;53.504;49.426;2023-03-12T03:09:58;4.07;;;3.67;;
67191;SDS011;54120;53.504;49.426;2023-03-12T03:12:35;4.22;;;3.80;;
67191;SDS011;54120;53.504;49.426;2023-03-12T03:15:02;3.88;;;3.58;;
67191;SDS011;54120;53.504;49.426;2023-03-12T03:17:29;5.35;;;4.03;;
67191;SDS011;54120;53.504;49.426;2023-03-12T03:19:55;4.30;;;3.90;;
67191;SDS011;54120;53.504;49.426;2023-03-12T03:22:21;4.50;;;4.10;;
67191;SDS011;54120;53.504;49.426;2023-03-12T03:24:48;4.90;;;4.40;;
67191;SDS011;54120;53.504;49.426;2023-03-12T03:27:14;4.70;;;3.67;;
67191;SDS011;54120;53.504;49.426;2023-03-12T03:29:40;4.93;;;4.53;;
67191;SDS011;54120;53.504;49.426;2023-03-12T03:32:07;5.28;;;4.72;;
67191;SDS011;54120;53.504;49.426;2023-03-12T03:34:33;4.40;;;3.95;;
67191;SDS011;54120;53.504;49.426;2023-03-12T03:36:59;4.38;;;3.97;;
67191;SDS011;54120;53.504;49.426;2023-03-12T03:39:27;4.30;;;3.90;;
67191;SDS011;54120;53.504;49.426;2023-03-12T03:41:54;7.03;;;4.28;;
67191;SDS011;54120;53.504;49.426;2023-03-12T03:44:20;3.83;;;3.53;;
67191;SDS011;54120;53.504;49.426;2023-03-12T03:46:48;3.80;;;3.47;;
67191;SDS011;54120;53.504;49.426;2023-03-12T03:49:14;4.95;;;4.55;;
67191;SDS011;54120;53.504;49.426;2023-03-12T03:51:41;4.93;;;4.40;;
67191;SDS011;54120;53.504;49.426;2023-03-12T03:54:08;4.95;;;4.40;;
67191;SDS011;54120;53.504;49.426;2023-03-12T03:56:34;5.13;;;4.63;;
67191;SDS011;54120;53.504;49.426;2023-03-12T03:59:00;5.82;;;4.15;;
67191;SDS011;54120;53.504;49.426;2023-03-12T04:01:27;5.05;;;4.40;;
67191;SDS011;54120;53.504;49.426;2023-03-12T04:03:54;4.75;;;4.30;;
67191;SDS011;54120;53.504;49.426;2023-03-12T04:06:20;4.78;;;4.28;;
67191;SDS011;54120;53.504;49.426;2023-03-12T04:08:46;3.95;;;3.60;;
67191;SDS011;54120;53.504;49.426;2023-03-12T04:11:19;4.15;;;3.75;;
67191;SDS011;54120;53.504;49.426;2023-03-12T04:13:46;4.68;;;4.10;;
67191;SDS011;54120;53.504;49.426;2023-03-12T04:16:13;4.75;;;3.92;;
67191;SDS011;54120;53.504;49.426;2023-03-12T04:18:40;5.53;;;3.55;;
67191;SDS011;54120;53.504;49.426;2023-03-12T04:21:07;4.70;;;4.07;;
67191;SDS011;54120;53.504;49.426;2023-03-12T04:23:35;6.13;;;4.30;;
67191;SDS011;54120;53.504;49.426;2023-03-12T04:26:02;4.68;;;4.22;;
67191;SDS011;54120;53.504;49.426;2023-03-12T04:28:29;4.43;;;3.97;;
67191;SDS011;54120;53.504;49.426;2023-03-12T04:30:57;4.38;;;3.85;;
67191;SDS011;54120;53.504;49.426;2023-03-12T04:33:25;4.75;;;3.88;;
67191;SDS011;54120;53.504;49.426;2023-03-12T04:35:55;5.47;;;4.20;;
67191;SDS011;54120;53.504;49.426;2023-03-12T04:38:22;5.30;;;4.13;;
67191;SDS011;54120;53.504;49.426;2023-03-12T04:41:02;4.47;;;4.03;;
67191;SDS011;54120;53.504;49.426;2023-03-12T04:43:31;5.47;;;4.20;;
67191;SDS011;54120;53.504;49.426;2023-03-12T04:45:58;4.65;;;4.05;;
67191;SDS011;54120;53.504;49.426;2023-03-12T04:48:25;4.22;;;3.83;;
67191;SDS011;54120;53.504;49.426;2023-03-12T04:50:52;4.90;;;4.28;;
67191;SDS011;54120;53.504;49.426;2023-03-12T04:53:19;4.75;;;3.92;;
67191;SDS011;54120;53.504;49.426;2023-03-12T04:55:45;5.05;;;4.18;;
67191;SDS011;54120;53.504;49.426;2023-03-12T04:58:12;5.43;;;4.35;;
67191;SDS011;54120;53.504;49.426;2023-03-12T05:00:39;5.22;;;4.32;;
67191;SDS011;54120;53.504;49.426;2023-03-12T05:03:06;4.45;;;3.92;;
67191;SDS011;54120;53.504;49.426;2023-03-12T05:05:33;4.78;;;4.18;;
67191;SDS011;54120;53.504;49.426;2023-03-12T05:08:00;4.07;;;3.63;;
67191;SDS011;54120;53.504;49.426;2023-03-12T05:10:27;3.78;;;3.35;;
67191;SDS011;54120;53.504;49.426;2023-03-12T05:12:53;4.05;;;3.33;;
67191;SDS011;54120;53.504;49.426;2023-03-12T05:15:20;4.82;;;3.95;;
67191;SDS011;54120;53.504;49.426;2023-03-12T05:17:46;4.88;;;3.92;;
67191;SDS011;54120;53.504;49.426;2023-03-12T05:20:12;4.72;;;4.30;;
67191;SDS011;54120;53.504;49.426;2023-03-12T05:22:38;4.78;;;4.35;;
67191;SDS011;54120;53.504;49.426;2023-03-12T05:25:05;11.75;;;4.38;;
67191;SDS011;54120;53.504;49.426;2023-03-12T05:27:32;5.32;;;4.55;;
67191;SDS011;54120;53.504;49.426;2023-03-12T05:29:58;5.35;;;4.70;;
67191;SDS011;54120;53.504;49.426;2023-03-12T05:32:24;5.70;;;5.03;;
67191;SDS011;54120;53.504;49.426;2023-03-12T05:34:50;5.63;;;4.80;;
67191;SDS011;54120;53.504;49.426;2023-03-12T05:37:17;6.80;;;4.90;;
67191;SDS011;54120;53.504;49.426;2023-03-12T05:39:43;5.40;;;4.43;;
67191;SDS011;54120;53.504;49.426;2023-03-12T05:42:12;5.50;;;4.95;;
67191;SDS011;54120;53.504;49.426;2023-03-12T05:44:39;5.88;;;5.03;;
67191;SDS011;54120;53.504;49.426;2023-03-12T05:47:06;6.30;;;5.32;;
67191;SDS011;54120;53.504;49.426;2023-03-12T05:49:33;6.65;;;5.60;;
67191;SDS011;54120;53.504;49.426;2023-03-12T05:52:00;5.95;;;5.28;;
67191;SDS011;54120;53.504;49.426;2023-03-12T05:54:26;9.23;;;6.35;;
67191;SDS011;54120;53.504;49.426;2023-03-12T05:56:53;7.38;;;5.32;;
67191;SDS011;54120;53.504;49.426;2023-03-12T05:59:20;9.07;;;6.35;;
67191;SDS011;54120;53.504;49.426;2023-03-12T06:01:47;9.63;;;6.45;;
67191;SDS011;54120;53.504;49.426;2023-03-12T06:04:13;9.80;;;7.28;;
67191;SDS011;54120;53.504;49.426;2023-03-12T06:06:39;8.73;;;7.03;;
67191;SDS011;54120;53.504;49.426;2023-03-12T06:09:06;8.82;;;7.00;;
67191;SDS011;54120;53.504;49.426;2023-03-12T06:11:32;9.73;;;6.65;;
67191;SDS011;54120;53.504;49.426;2023-03-12T06:13:59;9.98;;;7.72;;
67191;SDS011;54120;53.504;49.426;2023-03-12T06:16:26;12.75;;;7.85;;
67191;SDS011;54120;53.504;49.426;2023-03-12T06:18:54;9.50;;;7.65;;
67191;SDS011;54120;53.504;49.426;2023-03-12T06:21:23;9.63;;;7.10;;
67191;SDS011;54120;53.504;49.426;2023-03-12T06:23:52;11.43;;;8.38;;
67191;SDS011;54120;53.504;49.426;2023-03-12T06:26:19;10.55;;;8.27;;
67191;SDS011;54120;53.504;49.426;2023-03-12T06:28:46;14.55;;;7.80;;
67191;SDS011;54120;53.504;49.426;2023-03-12T06:31:14;9.32;;;7.38;;
67191;SDS011;54120;53.504;49.426;2023-03-12T06:33:41;13.57;;;9.68;;
67191;SDS011;54120;53.504;49.426;2023-03-12T06:36:08;9.95;;;6.28;;
67191;SDS011;54120;53.504;49.426;2023-03-12T06:38:37;12.55;;;9.07;;
67191;SDS011;54120;53.504;49.426;2023-03-12T06:41:11;11.50;;;7.60;;
67191;SDS011;54120;53.504;49.426;2023-03-12T06:43:39;15.55;;;9.02;;
67191;SDS011;54120;53.504;49.426;2023-03-12T06:46:07;13.02;;;8.63;;
67191;SDS011;54120;53.504;49.426;2023-03-12T06:48:36;14.35;;;11.30;;
67191;SDS011;54120;53.504;49.426;2023-03-12T06:51:09;16.55;;;11.60;;
67191;SDS011;54120;53.504;49.426;2023-03-12T06:53:40;12.80;;;9.82;;
67191;SDS011;54120;53.504;49.426;2023-03-12T06:56:07;14.85;;;11.93;;
67191;SDS011;54120;53.504;49.426;2023-03-12T06:58:33;14.65;;;9.85;;
67191;SDS011;54120;53.504;49.426;2023-03-12T07:00:59;15.10;;;11.02;;
67191;SDS011;54120;53.504;49.426;2023-03-12T07:03:29;15.88;;;10.88;;
67191;SDS011;54120;53.504;49.426;2023-03-12T07:05:55;14.82;;;10.52;;
67191;SDS011;54120;53.504;49.426;2023-03-12T07:08:23;12.43;;;8.77;;
67191;SDS011;54120;53.504;49.426;2023-03-12T07:10:50;13.80;;;8.85;;
67191;SDS011;54120;53.504;49.426;2023-03-12T07:13:16;14.25;;;10.80;;
67191;SDS011;54120;53.504;49.426;2023-03-12T07:15:42;12.80;;;10.18;;
67191;SDS011;54120;53.504;49.426;2023-03-12T07:18:11;16.05;;;10.65;;
67191;SDS011;54120;53.504;49.426;2023-03-12T07:20:38;14.48;;;10.00;;
67191;SDS011;54120;53.504;49.426;2023-03-12T07:23:06;11.50;;;8.23;;
67191;SDS011;54120;53.504;49.426;2023-03-12T07:25:37;18.40;;;11.48;;
67191;SDS011;54120;53.504;49.426;2023-03-12T07:28:05;12.38;;;8.88;;
67191;SDS011;54120;53.504;49.426;2023-03-12T07:30:32;16.90;;;11.43;;
67191;SDS011;54120;53.504;49.426;2023-03-12T07:32:59;16.67;;;10.55;;
67191;SDS011;54120;53.504;49.426;2023-03-12T07:35:46;15.63;;;12.05;;
67191;SDS011;54120;53.504;49.426;2023-03-12T07:38:13;14.25;;;10.48;;
67191;SDS011;54120;53.504;49.426;2023-03-12T07:40:39;13.60;;;10.18;;
67191;SDS011;54120;53.504;49.426;2023-03-12T07:43:05;16.98;;;10.63;;
67191;SDS011;54120;53.504;49.426;2023-03-12T07:45:38;16.70;;;11.85;;
67191;SDS011;54120;53.504;49.426;2023-03-12T07:48:05;16.13;;;11.82;;
67191;SDS011;54120;53.504;49.426;2023-03-12T07:50:33;19.92;;;13.43;;
67191;SDS011;54120;53.504;49.426;2023-03-12T07:53:00;14.18;;;10.23;;
67191;SDS011;54120;53.504;49.426;2023-03-12T07:55:27;16.48;;;10.75;;
67191;SDS011;54120;53.504;49.426;2023-03-12T07:57:53;16.83;;;10.63;;
67191;SDS011;54120;53.504;49.426;2023-03-12T08:00:26;16.08;;;10.70;;
67191;SDS011;54120;53.504;49.426;2023-03-12T08:02:53;16.83;;;12.35;;
67191;SDS011;54120;53.504;49.426;2023-03-12T08:05:20;16.42;;;12.48;;
67191;SDS011;54120;53.504;49.426;2023-03-12T08:07:52;16.92;;;12.25;;
67191;SDS011;54120;53.504;49.426;2023-03-12T08:10:19;15.88;;;11.50;;
67191;SDS011;54120;53.504;49.426;2023-03-12T08:12:46;15.38;;;10.48;;
67191;SDS011;54120;53.504;49.426;2023-03-12T08:15:13;12.93;;;8.77;;
67191;SDS011;54120;53.504;49.426;2023-03-12T08:17:40;14.13;;;10.05;;
67191;SDS011;54120;53.504;49.426;2023-03-12T08:20:06;19.25;;;10.55;;
67191;SDS011;54120;53.504;49.426;2023-03-12T08:22:36;15.25;;;9.85;;
67191;SDS011;54120;53.504;49.426;2023-03-12T08:25:03;14.35;;;10.60;;
67191;SDS011;54120;53.504;49.426;2023-03-12T08:27:29;15.25;;;9.88;;
67191;SDS011;54120;53.504;49.426;2023-03-12T08:29:56;18.60;;;11.07;;
67191;SDS011;54120;53.504;49.426;2023-03-12T08:32:22;16.35;;;12.10;;
67191;SDS011;54120;53.504;49.426;2023-03-12T08:34:49;18.00;;;10.23;;
67191;SDS011;54120;53.504;49.426;2023-03-12T08:37:15;15.32;;;10.38;;
67191;SDS011;54120;53.504;49.426;2023-03-12T08:39:42;15.27;;;10.32;;
67191;SDS011;54120;53.504;49.426;2023-03-12T08:42:08;15.60;;;11.13;;
67191;SDS011;54120;53.504;49.426;2023-03-12T08:44:35;15.57;;;11.23;;
67191;SDS011;54120;53.504;49.426;2023-03-12T08:47:01;15.43;;;11.55;;
67191;SDS011;54120;53.504;49.426;2023-03-12T08:49:27;19.75;;;12.00;;
67191;SDS011;54120;53.504;49.426;2023-03-12T08:51:54;19.25;;;12.02;;
67191;SDS011;54120;53.504;49.426;2023-03-12T08:54:20;15.73;;;11.20;;
67191;SDS011;54120;53.504;49.426;2023-03-12T08:56:52;18.13;;;12.27;;
67191;SDS011;54120;53.504;49.426;2023-03-12T08:59:18;16.58;;;9.93;;
67191;SDS011;54120;53.504;49.426;2023-03-12T09:01:45;15.85;;;11.27;;
67191;SDS011;54120;53.504;49.426;2023-03-12T09:04:11;17.85;;;12.45;;
67191;SDS011;54120;53.504;49.426;2023-03-12T09:06:37;17.50;;;11.38;;
67191;SDS011;54120;53.504;49.426;2023-03-12T09:09:03;19.50;;;13.45;;
67191;SDS011;54120;53.504;49.426;2023-03-12T09:11:30;19.63;;;13.23;;
67191;SDS011;54120;53.504;49.426;2023-03-12T09:13:58;18.20;;;11.60;;
67191;SDS011;54120;53.504;49.426;2023-03-12T09:16:24;15.93;;;10.43;;
67191;SDS011;54120;53.504;49.426;2023-03-12T09:18:50;20.33;;;12.13;;
67191;SDS011;54120;53.504;49.426;2023-03-12T09:21:17;17.63;;;13.13;;
67191;SDS011;54120;53.504;49.426;2023-03-12T09:23:43;19.17;;;11.90;;
67191;SDS011;54120;53.504;49.426;2023-03-12T09:26:09;17.10;;;12.20;;
67191;SDS011;54120;53.504;49.426;2023-03-12T09:28:37;17.13;;;11.80;;
67191;SDS011;54120;53.504;49.426;2023-03-12T09:31:03;18.20;;;12.15;;
67191;SDS011;54120;53.504;49.426;2023-03-12T09:33:30;16.58;;;12.30;;
67191;SDS011;54120;53.504;49.426;2023-03-12T09:35:57;15.48;;;11.68;;
67191;SDS011;54120;53.504;49.426;2023-03-12T09:38:23;13.52;;;10.50;;
67191;SDS011;54120;53.504;49.426;2023-03-12T09:40:49;12.82;;;9.45;;
67191;SDS011;54120;53.504;49.426;2023-03-12T09:43:17;14.00;;;9.52;;
67191;SDS011;54120;53.504;49.426;2023-03-12T09:45:50;16.30;;;10.55;;
67191;SDS011;54120;53.504;49.426;2023-03-12T09:50:57;13.52;;;9.43;;
67191;SDS011;54120;53.504;49.426;2023-03-12T09:53:29;13.93;;;9.85;;
67191;SDS011;54120;53.504;49.426;2023-03-12T09:56:08;17.08;;;11.13;;
67191;SDS011;54120;53.504;49.426;2023-03-12T09:58:38;14.45;;;10.60;;
67191;SDS011;54120;53.504;49.426;2023-03-12T10:06:24;13.45;;;9.80;;
67191;SDS011;54120;53.504;49.426;2023-03-12T10:14:13;13.88;;;10.77;;
67191;SDS011;54120;53.504;49.426;2023-03-12T10:22:14;16.88;;;9.10;;
67191;SDS011;54120;53.504;49.426;2023-03-12T10:24:57;13.55;;;10.52;;
67191;SDS011;54120;53.504;49.426;2023-03-12T10:27:34;13.63;;;9.63;;
67191;SDS011;54120;53.504;49.426;2023-03-12T10:30:17;13.52;;;10.00;;
67191;SDS011;54120;53.504;49.426;2023-03-12T10:33:04;17.90;;;10.80;;
67191;SDS011;54120;53.504;49.426;2023-03-12T10:35:37;15.18;;;10.88;;
67191;SDS011;54120;53.504;49.426;2023-03-12T10:38:08;15.18;;;9.95;;
67191;SDS011;54120;53.504;49.426;2023-03-12T10:40:39;13.73;;;9.97;;
67191;SDS011;54120;53.504;49.426;2023-03-12T10:43:05;14.10;;;10.27;;
67191;SDS011;54120;53.504;49.426;2023-03-12T10:48:47;13.93;;;10.52;;
67191;SDS011;54120;53.504;49.426;2023-03-12T10:51:13;13.63;;;10.50;;
67191;SDS011;54120;53.504;49.426;2023-03-12T10:53:41;16.00;;;10.48;;
67191;SDS011;54120;53.504;49.426;2023-03-12T10:56:13;11.32;;;9.07;;
67191;SDS011;54120;53.504;49.426;2023-03-12T10:58:44;12.52;;;8.98;;
67191;SDS011;54120;53.504;49.426;2023-03-12T11:03:46;8.85;;;7.22;;
67191;SDS011;54120;53.504;49.426;2023-03-12T11:06:46;12.40;;;9.30;;
67191;SDS011;54120;53.504;49.426;2023-03-12T11:11:32;13.30;;;10.00;;
67191;SDS011;54120;53.504;49.426;2023-03-12T11:14:16;12.63;;;9.18;;
67191;SDS011;54120;53.504;49.426;2023-03-12T11:16:48;12.57;;;7.68;;
67191;SDS011;54120;53.504;49.426;2023-03-12T11:19:28;11.57;;;9.02;;
67191;SDS011;54120;53.504;49.426;2023-03-12T11:22:00;11.02;;;8.45;;
67191;SDS011;54120;53.504;49.426;2023-03-12T11:24:29;11.38;;;8.27;;
67191;SDS011;54120;53.504;49.426;2023-03-12T11:29:42;12.32;;;8.80;;
67191;SDS011;54120;53.504;49.426;2023-03-12T11:42:58;13.68;;;8.18;;
67191;SDS011;54120;53.504;49.426;2023-03-12T11:56:35;13.52;;;8.40;;
67191;SDS011;54120;53.504;49.426;2023-03-12T12:04:53;11.95;;;9.45;;
67191;SDS011;54120;53.504;49.426;2023-03-12T12:24:08;8.85;;;6.28;;
67191;SDS011;54120;53.504;49.426;2023-03-12T12:26:52;13.25;;;8.75;;
67191;SDS011;54120;53.504;49.426;2023-03-12T12:32:23;11.60;;;8.35;;
67191;SDS011;54120;53.504;49.426;2023-03-12T12:38:06;7.57;;;5.75;;
67191;SDS011;54120;53.504;49.426;2023-03-12T12:40:36;9.57;;;6.80;;
67191;SDS011;54120;53.504;49.426;2023-03-12T12:46:01;8.48;;;6.43;;
67191;SDS011;54120;53.504;49.426;2023-03-12T12:48:33;10.85;;;7.20;;
67191;SDS011;54120;53.504;49.426;2023-03-12T12:52:15;8.05;;;5.55;;
67191;SDS011;54120;53.504;49.426;2023-03-12T12:58:09;8.23;;;6.07;;
67191;SDS011;54120;53.504;49.426;2023-03-12T13:00:47;6.57;;;4.85;;
67191;SDS011;54120;53.504;49.426;2023-03-12T13:03:18;6.60;;;5.30;;
67191;SDS011;54120;53.504;49.426;2023-03-12T13:08:36;7.28;;;6.20;;
67191;SDS011;54120;53.504;49.426;2023-03-12T13:11:37;7.57;;;5.95;;
67191;SDS011;54120;53.504;49.426;2023-03-12T13:17:04;10.40;;;5.82;;
67191;SDS011;54120;53.504;49.426;2023-03-12T13:19:56;7.47;;;5.75;;
67191;SDS011;54120;53.504;49.426;2023-03-12T13:26:22;6.40;;;5.53;;
67191;SDS011;54120;53.504;49.426;2023-03-12T13:31:34;7.20;;;4.53;;
67191;SDS011;54120;53.504;49.426;2023-03-12T13:36:37;6.72;;;5.80;;
67191;SDS011;54120;53.504;49.426;2023-03-12T13:41:12;7.22;;;5.80;;
67191;SDS011;54120;53.504;49.426;2023-03-12T13:44:50;5.80;;;4.82;;
67191;SDS011;54120;53.504;49.426;2023-03-12T13:49:19;8.18;;;4.80;;
67191;SDS011;54120;53.504;49.426;2023-03-12T13:54:30;6.22;;;5.07;;
67191;SDS011;54120;53.504;49.426;2023-03-12T13:58:55;6.50;;;5.00;;
67191;SDS011;54120;53.504;49.426;2023-03-12T14:03:58;6.65;;;4.53;;
67191;SDS011;54120;53.504;49.426;2023-03-12T14:06:28;6.45;;;4.50;;
67191;SDS011;54120;53.504;49.426;2023-03-12T14:18:17;7.00;;;4.13;;
67191;SDS011;54120;53.504;49.426;2023-03-12T14:20:54;4.40;;;3.38;;
67191;SDS011;54120;53.504;49.426;2023-03-12T14:23:37;4.50;;;3.35;;
67191;SDS011;54120;53.504;49.426;2023-03-12T14:26:16;4.70;;;3.92;;
67191;SDS011;54120;53.504;49.426;2023-03-12T14:28:46;5.60;;;4.28;;
67191;SDS011;54120;53.504;49.426;2023-03-12T14:31:23;5.60;;;4.60;;
67191;SDS011;54120;53.504;49.426;2023-03-12T14:38:47;5.70;;;4.63;;
67191;SDS011;54120;53.504;49.426;2023-03-12T14:43:40;8.82;;;4.50;;
67191;SDS011;54120;53.504;49.426;2023-03-12T14:46:17;6.65;;;3.70;;
67191;SDS011;54120;53.504;49.426;2023-03-12T14:48:46;5.70;;;4.72;;
67191;SDS011;54120;53.504;49.426;2023-03-12T14:51:19;5.55;;;4.07;;
67191;SDS011;54120;53.504;49.426;2023-03-12T14:53:49;5.15;;;4.10;;
67191;SDS011;54120;53.504;49.426;2023-03-12T14:56:30;5.88;;;3.60;;
67191;SDS011;54120;53.504;49.426;2023-03-12T14:59:00;4.25;;;3.83;;
67191;SDS011;54120;53.504;49.426;2023-03-12T15:05:32;6.47;;;4.20;;
67191;SDS011;54120;53.504;49.426;2023-03-12T15:08:00;5.57;;;3.95;;
67191;SDS011;54120;53.504;49.426;2023-03-12T15:10:28;7.82;;;4.10;;
67191;SDS011;54120;53.504;49.426;2023-03-12T15:12:56;4.97;;;3.70;;
67191;SDS011;54120;53.504;49.426;2023-03-12T15:15:29;3.58;;;3.03;;
67191;SDS011;54120;53.504;49.426;2023-03-12T15:17:57;7.00;;;3.88;;
67191;SDS011;54120;53.504;49.426;2023-03-12T15:20:29;6.57;;;3.55;;
67191;SDS011;54120;53.504;49.426;2023-03-12T15:22:57;5.80;;;3.97;;
67191;SDS011;54120;53.504;49.426;2023-03-12T15:25:26;5.70;;;3.90;;
67191;SDS011;54120;53.504;49.426;2023-03-12T15:28:05;5.28;;;4.15;;
67191;SDS011;54120;53.504;49.426;2023-03-12T15:30:35;5.70;;;4.00;;
67191;SDS011;54120;53.504;49.426;2023-03-12T15:35:55;4.80;;;4.00;;
67191;SDS011;54120;53.504;49.426;2023-03-12T15:38:49;3.45;;;2.95;;
67191;SDS011;54120;53.504;49.426;2023-03-12T15:41:20;4.55;;;3.17;;
67191;SDS011;54120;53.504;49.426;2023-03-12T15:43:51;5.30;;;3.78;;
67191;SDS011;54120;53.504;49.426;2023-03-12T15:46:23;4.93;;;2.53;;
67191;SDS011;54120;53.504;49.426;2023-03-12T15:48:57;7.05;;;3.55;;
67191;SDS011;54120;53.504;49.426;2023-03-12T15:51:26;3.78;;;3.33;;
67191;SDS011;54120;53.504;49.426;2023-03-12T15:54:03;6.05;;;3.25;;
67191;SDS011;54120;53.504;49.426;2023-03-12T15:56:30;6.78;;;3.17;;
67191;SDS011;54120;53.504;49.426;2023-03-12T15:58:59;3.90;;;3.00;;
67191;SDS011;54120;53.504;49.426;2023-03-12T16:03:56;4.05;;;3.40;;
67191;SDS011;54120;53.504;49.426;2023-03-12T16:06:24;2.95;;;2.72;;
67191;SDS011;54120;53.504;49.426;2023-03-12T16:08:54;3.50;;;3.17;;
67191;SDS011;54120;53.504;49.426;2023-03-12T16:11:26;2.70;;;2.50;;
67191;SDS011;54120;53.504;49.426;2023-03-12T16:14:00;3.25;;;2.95;;
67191;SDS011;54120;53.504;49.426;2023-03-12T16:16:30;4.68;;;3.13;;
67191;SDS011;54120;53.504;49.426;2023-03-12T16:18:56;3.42;;;2.38;;
67191;SDS011;54120;53.504;49.426;2023-03-12T16:21:22;3.88;;;2.72;;
67191;SDS011;54120;53.504;49.426;2023-03-12T16:23:48;3.80;;;2.85;;
67191;SDS011;54120;53.504;49.426;2023-03-12T16:26:15;3.60;;;2.95;;
67191;SDS011;54120;53.504;49.426;2023-03-12T16:28:41;3.17;;;2.00;;
67191;SDS011;54120;53.504;49.426;2023-03-12T16:31:11;3.00;;;2.70;;
67191;SDS011;54120;53.504;49.426;2023-03-12T16:33:39;2.70;;;2.50;;
67191;SDS011;54120;53.504;49.426;2023-03-12T16:36:13;3.05;;;2.40;;
67191;SDS011;54120;53.504;49.426;2023-03-12T16:38:41;3.63;;;2.10;;
67191;SDS011;54120;53.504;49.426;2023-03-12T16:41:09;2.33;;;2.10;;
67191;SDS011;54120;53.504;49.426;2023-03-12T16:43:41;3.92;;;2.60;;
67191;SDS011;54120;53.504;49.426;2023-03-12T16:46:13;1.95;;;1.85;;
67191;SDS011;54120;53.504;49.426;2023-03-12T16:48:41;4.07;;;2.20;;
67191;SDS011;54120;53.504;49.426;2023-03-12T16:51:13;3.92;;;2.10;;
67191;SDS011;54120;53.504;49.426;2023-03-12T16:53:40;2.45;;;2.25;;
67191;SDS011;54120;53.504;49.426;2023-03-12T16:56:12;3.13;;;2.35;;
67191;SDS011;54120;53.504;49.426;2023-03-12T16:58:40;4.65;;;1.90;;
67191;SDS011;54120;53.504;49.426;2023-03-12T17:01:17;2.35;;;1.90;;